Kaleen Mc Allister — WDB3847 — position and weather

sailwx.info

Track history (hours):
 
Tides and Currents Weather Stations Pressure Air Temp Water Temp Dewpoint Dewpoint Depression Visibility Wind Speed Wind Dir Waves Ship Positions

Kaleen Mc Allister

Owner: MC ALLISTER TOWING & TRANSPORTATION INC, NEW YORK, NY. More information available from US FCC via Universal Licensing System and Coast Guard Vessel Documentation Center.

Last reported at 2016-Jun-01 04:34 UTC. Time now 2016-Jun-01 05:34 UTC.
Position N 39°16' W 076°35'.

Length 31 m; draft 4 m.

Type: Tug. MMSI: 366891960.

Date/timePositionNaut miles runAvg speedWind from/ knotsBaromVisibWave heightAir tempDewpointWater temp
2016-Jun-01 04:34N 39°16' W 076°35'0 0.0
2016-Jun-01 03:33N 39°16' W 076°35'0 0.0
2016-Jun-01 02:34N 39°16' W 076°35'0 0.0
2016-Jun-01 01:34N 39°16' W 076°35'0 0.0
2016-Jun-01 00:34N 39°16' W 076°35'0 0.0
2016-May-31 23:33N 39°16' W 076°35'0 0.0
2016-May-31 22:29N 39°16' W 076°35'0 0.0
2016-May-31 21:32N 39°16' W 076°35'0 0.0
2016-May-31 20:34N 39°16' W 076°35'0 0.0
2016-May-31 19:30N 39°16' W 076°35'0 0.0
2016-May-31 18:29N 39°16' W 076°35'0 0.0
2016-May-31 17:30N 39°16' W 076°35'0 0.0
2016-May-31 16:30N 39°16' W 076°35'0 0.0
2016-May-31 15:28N 39°16' W 076°35'0 0.0
2016-May-31 14:25N 39°16' W 076°35'0 0.0
2016-May-31 13:30N 39°16' W 076°35'0 0.0
2016-May-31 12:31N 39°16' W 076°35'0 0.0
2016-May-31 11:33N 39°16' W 076°35'3 3.0
2016-May-31 10:31N 39°13' W 076°35'2 1.6
2016-May-31 09:33N 39°14' W 076°33'1 0.8
2016-May-31 08:33N 39°15' W 076°33'2 2.0
2016-May-31 07:33N 39°16' W 076°35'0 0.0
2016-May-31 06:32N 39°16' W 076°35'0 0.0
2016-May-31 04:21N 39°16' W 076°35'0 0.0
2016-May-31 03:31N 39°16' W 076°35'0 0.0
2016-May-31 02:30N 39°16' W 076°35'0 0.0
2016-May-31 01:31N 39°16' W 076°35'0 0.0
2016-May-31 00:30N 39°16' W 076°35'0 0.0
2016-May-30 23:20N 39°16' W 076°35'0 0.0
2016-May-30 22:26N 39°16' W 076°35'0 0.0
2016-May-30 20:30N 39°16' W 076°35'0 0.0
2016-May-30 19:25N 39°16' W 076°35'3 3.4
2016-May-30 18:33N 39°13' W 076°34'1 0.8
2016-May-30 17:30N 39°13' W 076°33'3 2.7
2016-May-30 16:17N 39°16' W 076°35'0 0.0
2016-May-30 15:31N 39°16' W 076°35'0 0.0
2016-May-30 14:33N 39°16' W 076°35'0 0.0
2016-May-30 13:33N 39°16' W 076°35'0 0.0
2016-May-30 12:31N 39°16' W 076°35'0 0.0
2016-May-30 11:33N 39°16' W 076°35'0 0.0
2016-May-30 10:33N 39°16' W 076°35'0 0.0
2016-May-30 09:33N 39°16' W 076°35'0 0.0
2016-May-30 08:33N 39°16' W 076°35'0 0.0
2016-May-30 07:33N 39°16' W 076°35'0 0.0
2016-May-30 06:33N 39°16' W 076°35'0 0.0
2016-May-30 05:30N 39°16' W 076°35'0 0.0
2016-May-30 04:30N 39°16' W 076°35'0 0.0
2016-May-30 03:34N 39°16' W 076°35'0 0.0
2016-May-30 02:15N 39°16' W 076°35'0 0.0
2016-May-30 01:28N 39°16' W 076°35'0 0.0
2016-May-30 00:33N 39°16' W 076°35'0 0.0
2016-May-29 23:33N 39°16' W 076°35'0 0.0
2016-May-29 22:32N 39°16' W 076°35'1 0.9
2016-May-29 21:33N 39°15' W 076°34'1 0.8
2016-May-29 20:30N 39°15' W 076°33'2 1.2
2016-May-29 19:10N 39°16' W 076°35'0 0.0
2016-May-29 17:30N 39°16' W 076°35'0 0.0
2016-May-29 16:25N 39°16' W 076°35'0 0.0
2016-May-29 15:30N 39°16' W 076°35'0 0.0
2016-May-29 14:30N 39°16' W 076°35'0 0.0
2016-May-29 13:31N 39°16' W 076°35'0 0.0
2016-May-29 12:33N 39°16' W 076°35'0 0.0
2016-May-29 11:31N 39°16' W 076°35'0 0.0
2016-May-29 10:33N 39°16' W 076°35'0 0.0
2016-May-29 09:34N 39°16' W 076°35'0 0.0
2016-May-29 08:34N 39°16' W 076°35'0 0.0
2016-May-29 07:33N 39°16' W 076°35'0 0.0
2016-May-29 06:33N 39°16' W 076°35'0 0.0
2016-May-29 05:33N 39°16' W 076°35'0 0.0
2016-May-29 04:33N 39°16' W 076°35'0 0.0
2016-May-29 03:34N 39°16' W 076°35'0 0.0
2016-May-29 02:33N 39°16' W 076°35'0 0.0
2016-May-29 01:33N 39°16' W 076°35'0 0.0
2016-May-29 00:30N 39°16' W 076°35'0 0.0
2016-May-28 23:25N 39°16' W 076°35'0 0.0
2016-May-28 22:30N 39°16' W 076°35'0 0.0
2016-May-28 21:21N 39°16' W 076°35'0 0.0
2016-May-28 20:30N 39°16' W 076°35'0 0.0
2016-May-28 19:30N 39°16' W 076°35'0 0.0
2016-May-28 18:10N 39°16' W 076°35'0 0.0
2016-May-28 17:30N 39°16' W 076°35'0 0.0
2016-May-28 16:15N 39°16' W 076°35'0 0.0
2016-May-28 14:30N 39°16' W 076°35'0 0.0
2016-May-28 13:15N 39°16' W 076°35'0 0.0
2016-May-28 12:30N 39°16' W 076°35'0 0.0
2016-May-28 11:25N 39°16' W 076°35'0 0.0
2016-May-28 10:33N 39°16' W 076°35'2 2.3
2016-May-28 09:30N 39°14' W 076°33'2 2.6
2016-May-28 08:33N 39°16' W 076°35'0 0.0
2016-May-28 07:33N 39°16' W 076°35'0 0.0
2016-May-28 06:30N 39°16' W 076°35'0 0.0
2016-May-28 05:32N 39°16' W 076°35'0 0.0
2016-May-28 04:33N 39°16' W 076°35'0 0.0
2016-May-28 03:30N 39°16' W 076°35'0 0.0
2016-May-28 02:27N 39°16' W 076°35'2 2.4
2016-May-28 01:31N 39°14' W 076°33'2 2.2
2016-May-28 00:32N 39°16' W 076°35'0 0.2
2016-May-27 23:30N 39°16' W 076°35'0 0.0
2016-May-27 22:30N 39°16' W 076°35'0 0.0
2016-May-27 21:30N 39°16' W 076°35'0 0.0
2016-May-27 20:30N 39°16' W 076°35'0 0.0
2016-May-27 19:30N 39°16' W 076°35'0 0.0
2016-May-27 18:20N 39°16' W 076°35'0 0.0
2016-May-27 17:25N 39°16' W 076°35'3 3.4
2016-May-27 16:33N 39°14' W 076°32'3 2.9
2016-May-27 15:32N 39°16' W 076°35'0 0.0
2016-May-27 14:33N 39°16' W 076°35'0 0.0
2016-May-27 13:32N 39°16' W 076°35'0 0.0
2016-May-27 12:31N 39°16' W 076°35'2 2.4
2016-May-27 11:31N 39°15' W 076°32'0 0.0
2016-May-27 10:33N 39°15' W 076°32'0 0.0
2016-May-27 09:33N 39°15' W 076°32'0 0.0
2016-May-27 08:34N 39°15' W 076°32'0 0.0
2016-May-27 07:31N 39°15' W 076°32'0 0.0
2016-May-27 06:33N 39°15' W 076°32'0 0.0
2016-May-27 05:33N 39°15' W 076°32'0 0.0
2016-May-27 04:33N 39°15' W 076°32'0 0.0
2016-May-27 03:33N 39°15' W 076°32'2 2.4
2016-May-27 02:33N 39°16' W 076°35'0 0.0
2016-May-27 01:30N 39°16' W 076°35'0 0.0
2016-May-27 00:30N 39°16' W 076°35'0 0.0
2016-May-26 23:32N 39°16' W 076°35'3 3.1
2016-May-26 22:32N 39°15' W 076°31'3 3.0
2016-May-26 21:33N 39°16' W 076°35'0 0.1
2016-May-26 18:25N 39°16' W 076°35'0 0.0
2016-May-26 17:32N 39°16' W 076°35'0 0.0
2016-May-26 15:03N 39°16' W 076°35'0 0.0
2016-May-26 14:29N 39°16' W 076°35'0 0.0
2016-May-26 13:33N 39°16' W 076°35'0 0.0
2016-May-26 12:34N 39°16' W 076°35'3 3.4
2016-May-26 11:33N 39°13' W 076°35'3 2.7
2016-May-26 10:33N 39°15' W 076°34'1 0.9
2016-May-26 09:33N 39°16' W 076°35'0 0.0
2016-May-26 08:33N 39°16' W 076°35'0 0.0
2016-May-26 07:33N 39°16' W 076°35'0 0.0
2016-May-26 06:33N 39°16' W 076°35'0 0.0
2016-May-26 05:33N 39°16' W 076°35'0 0.0
2016-May-26 04:33N 39°16' W 076°35'0 0.0
2016-May-26 03:33N 39°16' W 076°35'0 0.0
2016-May-26 02:34N 39°16' W 076°35'0 0.0
2016-May-26 01:33N 39°16' W 076°35'1 1.2
2016-May-26 00:33N 39°15' W 076°35'1 1.1
2016-May-25 23:31N 39°16' W 076°35'0 0.0
2016-May-25 22:33N 39°16' W 076°35'0 0.0
2016-May-25 21:32N 39°16' W 076°35'0 0.0
2016-May-25 20:32N 39°16' W 076°35'3 1.5
2016-May-25 18:33N 39°13' W 076°34'1 0.7
2016-May-25 17:15N 39°13' W 076°35'2 2.8
2016-May-25 16:33N 39°14' W 076°32'3 1.5
2016-May-25 14:33N 39°16' W 076°35'0 0.0
2016-May-25 13:32N 39°16' W 076°35'0 0.5
2016-May-25 12:32N 39°16' W 076°34'2 2.0
2016-May-25 11:34N 39°15' W 076°32'0 0.0
2016-May-25 10:34N 39°15' W 076°32'0 0.0
2016-May-25 09:33N 39°15' W 076°32'0 0.0
2016-May-25 08:34N 39°15' W 076°32'1 0.8
2016-May-25 07:33N 39°14' W 076°33'2 2.5
2016-May-25 06:33N 39°16' W 076°34'0 0.1
2016-May-25 05:33N 39°16' W 076°34'0 0.4
2016-May-25 04:34N 39°16' W 076°35'0 0.0
2016-May-25 03:34N 39°16' W 076°35'0 0.0
2016-May-25 02:34N 39°16' W 076°35'0 0.0
2016-May-25 01:33N 39°16' W 076°35'0 0.0
2016-May-25 00:33N 39°16' W 076°35'0 0.0
2016-May-24 23:34N 39°16' W 076°35'0 0.0
2016-May-24 22:33N 39°16' W 076°35'0 0.0
2016-May-24 21:24N 39°16' W 076°35'0 0.0
2016-May-24 20:17N 39°16' W 076°35'0 0.0
2016-May-24 19:28N 39°16' W 076°35'0 0.0
2016-May-24 18:33N 39°16' W 076°35'0 0.0
2016-May-24 17:07N 39°16' W 076°35'0 0.0
2016-May-24 16:14N 39°16' W 076°35'2 3.4
2016-May-24 15:33N 39°15' W 076°32'2 2.0
2016-May-24 14:33N 39°13' W 076°32'2 2.4
2016-May-24 13:33N 39°13' W 076°35'1 1.5
2016-May-24 12:34N 39°13' W 076°33'2 1.9
2016-May-24 11:34N 39°15' W 076°34'0 0.1
2016-May-24 10:33N 39°15' W 076°34'1 1.3
2016-May-24 09:33N 39°16' W 076°35'0 0.0
2016-May-24 08:33N 39°16' W 076°35'0 0.0
2016-May-24 07:33N 39°16' W 076°35'0 0.0
2016-May-24 06:33N 39°16' W 076°35'0 0.0
2016-May-24 05:33N 39°16' W 076°35'0 0.0
2016-May-24 04:30N 39°16' W 076°35'0 0.0
2016-May-24 03:33N 39°16' W 076°35'0 0.3
2016-May-24 02:33N 39°16' W 076°35'4 3.7
2016-May-24 01:33N 39°13' W 076°32'1 1.4
2016-May-24 00:32N 39°14' W 076°32'2 1.8
2016-May-23 23:31N 39°15' W 076°34'0 0.0
2016-May-23 22:31N 39°15' W 076°34'2 1.8
2016-May-23 21:33N 39°16' W 076°35'0 0.0
2016-May-23 20:31N 39°16' W 076°35'0 0.0
2016-May-23 19:33N 39°16' W 076°35'0 0.0
2016-May-23 18:30N 39°16' W 076°35'0 0.4
2016-May-23 17:34N 39°16' W 076°34'2 2.1
2016-May-23 16:33N 39°14' W 076°33'2 2.3
2016-May-23 15:30N 39°16' W 076°35'0 0.0
2016-May-23 14:31N 39°16' W 076°35'0 0.0
2016-May-23 13:20N 39°16' W 076°35'0 0.0
2016-May-23 12:34N 39°16' W 076°35'0 0.0
2016-May-23 11:33N 39°16' W 076°35'0 0.0
2016-May-23 10:33N 39°16' W 076°35'0 0.2
2016-May-23 09:33N 39°16' W 076°35'0 0.2
2016-May-23 08:33N 39°16' W 076°35'2 2.4
2016-May-23 07:33N 39°15' W 076°32'0 0.0
2016-May-23 06:34N 39°15' W 076°32'0 0.0
2016-May-23 05:33N 39°15' W 076°32'1 1.0
2016-May-23 04:34N 39°14' W 076°33'3 2.3
2016-May-23 03:15N 39°16' W 076°35'0 0.0
2016-May-23 02:31N 39°16' W 076°35'0 0.0
2016-May-23 01:32N 39°16' W 076°35'0 0.0
2016-May-23 00:30N 39°16' W 076°35'0 0.0
2016-May-22 23:30N 39°16' W 076°35'0 0.0
2016-May-22 22:27N 39°16' W 076°35'0 0.0
2016-May-22 21:20N 39°16' W 076°35'0 0.0
2016-May-22 20:11N 39°16' W 076°35'0 0.0
2016-May-22 19:33N 39°16' W 076°35'0 0.0
2016-May-22 18:33N 39°16' W 076°35'0 0.0
2016-May-22 17:33N 39°16' W 076°35'0 0.0
2016-May-22 16:33N 39°16' W 076°35'0 0.0
2016-May-22 15:33N 39°16' W 076°35'0 0.0
2016-May-22 14:30N 39°16' W 076°35'0 0.0
2016-May-22 13:30N 39°16' W 076°35'0 0.0
2016-May-22 12:19N 39°16' W 076°35'0 0.0
2016-May-22 11:25N 39°16' W 076°35'0 0.0
2016-May-22 09:30N 39°16' W 076°35'0 0.0
2016-May-22 08:25N 39°16' W 076°35'0 0.0
2016-May-22 07:30N 39°16' W 076°35'0 0.0
2016-May-22 06:25N 39°16' W 076°35'0 0.0
2016-May-22 05:21N 39°16' W 076°35'  
Track history (hours):
 
Tides and Currents Weather Stations Pressure Air Temp Water Temp Dewpoint Dewpoint Depression Visibility Wind Speed Wind Dir Waves Ship Positions

Kaleen Mc Allister

Owner: MC ALLISTER TOWING & TRANSPORTATION INC, NEW YORK, NY. More information available from US FCC via Universal Licensing System and Coast Guard Vessel Documentation Center.

Last reported at 2016-Jun-01 04:34 UTC. Time now 2016-Jun-01 05:34 UTC.
Position N 39°16' W 076°35'.

Length 31 m; draft 4 m.

Type: Tug. MMSI: 366891960.

Date/timePositionNaut miles runAvg speedWind from/ knotsBaromVisibWave heightAir tempDewpointWater temp
2016-Jun-01 04:34N 39°16' W 076°35'0 0.0
2016-Jun-01 03:33N 39°16' W 076°35'0 0.0
2016-Jun-01 02:34N 39°16' W 076°35'0 0.0
2016-Jun-01 01:34N 39°16' W 076°35'0 0.0
2016-Jun-01 00:34N 39°16' W 076°35'0 0.0
2016-May-31 23:33N 39°16' W 076°35'0 0.0
2016-May-31 22:29N 39°16' W 076°35'0 0.0
2016-May-31 21:32N 39°16' W 076°35'0 0.0
2016-May-31 20:34N 39°16' W 076°35'0 0.0
2016-May-31 19:30N 39°16' W 076°35'0 0.0
2016-May-31 18:29N 39°16' W 076°35'0 0.0
2016-May-31 17:30N 39°16' W 076°35'0 0.0
2016-May-31 16:30N 39°16' W 076°35'0 0.0
2016-May-31 15:28N 39°16' W 076°35'0 0.0
2016-May-31 14:25N 39°16' W 076°35'0 0.0
2016-May-31 13:30N 39°16' W 076°35'0 0.0
2016-May-31 12:31N 39°16' W 076°35'0 0.0
2016-May-31 11:33N 39°16' W 076°35'3 3.0
2016-May-31 10:31N 39°13' W 076°35'2 1.6
2016-May-31 09:33N 39°14' W 076°33'1 0.8
2016-May-31 08:33N 39°15' W 076°33'2 2.0
2016-May-31 07:33N 39°16' W 076°35'0 0.0
2016-May-31 06:32N 39°16' W 076°35'0 0.0
2016-May-31 04:21N 39°16' W 076°35'0 0.0
2016-May-31 03:31N 39°16' W 076°35'0 0.0
2016-May-31 02:30N 39°16' W 076°35'0 0.0
2016-May-31 01:31N 39°16' W 076°35'0 0.0
2016-May-31 00:30N 39°16' W 076°35'0 0.0
2016-May-30 23:20N 39°16' W 076°35'0 0.0
2016-May-30 22:26N 39°16' W 076°35'0 0.0
2016-May-30 20:30N 39°16' W 076°35'0 0.0
2016-May-30 19:25N 39°16' W 076°35'3 3.4
2016-May-30 18:33N 39°13' W 076°34'1 0.8
2016-May-30 17:30N 39°13' W 076°33'3 2.7
2016-May-30 16:17N 39°16' W 076°35'0 0.0
2016-May-30 15:31N 39°16' W 076°35'0 0.0
2016-May-30 14:33N 39°16' W 076°35'0 0.0
2016-May-30 13:33N 39°16' W 076°35'0 0.0
2016-May-30 12:31N 39°16' W 076°35'0 0.0
2016-May-30 11:33N 39°16' W 076°35'0 0.0
2016-May-30 10:33N 39°16' W 076°35'0 0.0
2016-May-30 09:33N 39°16' W 076°35'0 0.0
2016-May-30 08:33N 39°16' W 076°35'0 0.0
2016-May-30 07:33N 39°16' W 076°35'0 0.0
2016-May-30 06:33N 39°16' W 076°35'0 0.0
2016-May-30 05:30N 39°16' W 076°35'0 0.0
2016-May-30 04:30N 39°16' W 076°35'0 0.0
2016-May-30 03:34N 39°16' W 076°35'0 0.0
2016-May-30 02:15N 39°16' W 076°35'0 0.0
2016-May-30 01:28N 39°16' W 076°35'0 0.0
2016-May-30 00:33N 39°16' W 076°35'0 0.0
2016-May-29 23:33N 39°16' W 076°35'0 0.0
2016-May-29 22:32N 39°16' W 076°35'1 0.9
2016-May-29 21:33N 39°15' W 076°34'1 0.8
2016-May-29 20:30N 39°15' W 076°33'2 1.2
2016-May-29 19:10N 39°16' W 076°35'0 0.0
2016-May-29 17:30N 39°16' W 076°35'0 0.0
2016-May-29 16:25N 39°16' W 076°35'0 0.0
2016-May-29 15:30N 39°16' W 076°35'0 0.0
2016-May-29 14:30N 39°16' W 076°35'0 0.0
2016-May-29 13:31N 39°16' W 076°35'0 0.0
2016-May-29 12:33N 39°16' W 076°35'0 0.0
2016-May-29 11:31N 39°16' W 076°35'0 0.0
2016-May-29 10:33N 39°16' W 076°35'0 0.0
2016-May-29 09:34N 39°16' W 076°35'0 0.0
2016-May-29 08:34N 39°16' W 076°35'0 0.0
2016-May-29 07:33N 39°16' W 076°35'0 0.0
2016-May-29 06:33N 39°16' W 076°35'0 0.0
2016-May-29 05:33N 39°16' W 076°35'0 0.0
2016-May-29 04:33N 39°16' W 076°35'0 0.0
2016-May-29 03:34N 39°16' W 076°35'0 0.0
2016-May-29 02:33N 39°16' W 076°35'0 0.0
2016-May-29 01:33N 39°16' W 076°35'0 0.0
2016-May-29 00:30N 39°16' W 076°35'0 0.0
2016-May-28 23:25N 39°16' W 076°35'0 0.0
2016-May-28 22:30N 39°16' W 076°35'0 0.0
2016-May-28 21:21N 39°16' W 076°35'0 0.0
2016-May-28 20:30N 39°16' W 076°35'0 0.0
2016-May-28 19:30N 39°16' W 076°35'0 0.0
2016-May-28 18:10N 39°16' W 076°35'0 0.0
2016-May-28 17:30N 39°16' W 076°35'0 0.0
2016-May-28 16:15N 39°16' W 076°35'0 0.0
2016-May-28 14:30N 39°16' W 076°35'0 0.0
2016-May-28 13:15N 39°16' W 076°35'0 0.0
2016-May-28 12:30N 39°16' W 076°35'0 0.0
2016-May-28 11:25N 39°16' W 076°35'0 0.0
2016-May-28 10:33N 39°16' W 076°35'2 2.3
2016-May-28 09:30N 39°14' W 076°33'2 2.6
2016-May-28 08:33N 39°16' W 076°35'0 0.0
2016-May-28 07:33N 39°16' W 076°35'0 0.0
2016-May-28 06:30N 39°16' W 076°35'0 0.0
2016-May-28 05:32N 39°16' W 076°35'0 0.0
2016-May-28 04:33N 39°16' W 076°35'0 0.0
2016-May-28 03:30N 39°16' W 076°35'0 0.0
2016-May-28 02:27N 39°16' W 076°35'2 2.4
2016-May-28 01:31N 39°14' W 076°33'2 2.2
2016-May-28 00:32N 39°16' W 076°35'0 0.2
2016-May-27 23:30N 39°16' W 076°35'0 0.0
2016-May-27 22:30N 39°16' W 076°35'0 0.0
2016-May-27 21:30N 39°16' W 076°35'0 0.0
2016-May-27 20:30N 39°16' W 076°35'0 0.0
2016-May-27 19:30N 39°16' W 076°35'0 0.0
2016-May-27 18:20N 39°16' W 076°35'0 0.0
2016-May-27 17:25N 39°16' W 076°35'3 3.4
2016-May-27 16:33N 39°14' W 076°32'3 2.9
2016-May-27 15:32N 39°16' W 076°35'0 0.0
2016-May-27 14:33N 39°16' W 076°35'0 0.0
2016-May-27 13:32N 39°16' W 076°35'0 0.0
2016-May-27 12:31N 39°16' W 076°35'2 2.4
2016-May-27 11:31N 39°15' W 076°32'0 0.0
2016-May-27 10:33N 39°15' W 076°32'0 0.0
2016-May-27 09:33N 39°15' W 076°32'0 0.0
2016-May-27 08:34N 39°15' W 076°32'0 0.0
2016-May-27 07:31N 39°15' W 076°32'0 0.0
2016-May-27 06:33N 39°15' W 076°32'0 0.0
2016-May-27 05:33N 39°15' W 076°32'0 0.0
2016-May-27 04:33N 39°15' W 076°32'0 0.0
2016-May-27 03:33N 39°15' W 076°32'2 2.4
2016-May-27 02:33N 39°16' W 076°35'0 0.0
2016-May-27 01:30N 39°16' W 076°35'0 0.0
2016-May-27 00:30N 39°16' W 076°35'0 0.0
2016-May-26 23:32N 39°16' W 076°35'3 3.1
2016-May-26 22:32N 39°15' W 076°31'3 3.0
2016-May-26 21:33N 39°16' W 076°35'0 0.1
2016-May-26 18:25N 39°16' W 076°35'0 0.0
2016-May-26 17:32N 39°16' W 076°35'0 0.0
2016-May-26 15:03N 39°16' W 076°35'0 0.0
2016-May-26 14:29N 39°16' W 076°35'0 0.0
2016-May-26 13:33N 39°16' W 076°35'0 0.0
2016-May-26 12:34N 39°16' W 076°35'3 3.4
2016-May-26 11:33N 39°13' W 076°35'3 2.7
2016-May-26 10:33N 39°15' W 076°34'1 0.9
2016-May-26 09:33N 39°16' W 076°35'0 0.0
2016-May-26 08:33N 39°16' W 076°35'0 0.0
2016-May-26 07:33N 39°16' W 076°35'0 0.0
2016-May-26 06:33N 39°16' W 076°35'0 0.0
2016-May-26 05:33N 39°16' W 076°35'0 0.0
2016-May-26 04:33N 39°16' W 076°35'0 0.0
2016-May-26 03:33N 39°16' W 076°35'0 0.0
2016-May-26 02:34N 39°16' W 076°35'0 0.0
2016-May-26 01:33N 39°16' W 076°35'1 1.2
2016-May-26 00:33N 39°15' W 076°35'1 1.1
2016-May-25 23:31N 39°16' W 076°35'0 0.0
2016-May-25 22:33N 39°16' W 076°35'0 0.0
2016-May-25 21:32N 39°16' W 076°35'0 0.0
2016-May-25 20:32N 39°16' W 076°35'3 1.5
2016-May-25 18:33N 39°13' W 076°34'1 0.7
2016-May-25 17:15N 39°13' W 076°35'2 2.8
2016-May-25 16:33N 39°14' W 076°32'3 1.5
2016-May-25 14:33N 39°16' W 076°35'0 0.0
2016-May-25 13:32N 39°16' W 076°35'0 0.5
2016-May-25 12:32N 39°16' W 076°34'2 2.0
2016-May-25 11:34N 39°15' W 076°32'0 0.0
2016-May-25 10:34N 39°15' W 076°32'0 0.0
2016-May-25 09:33N 39°15' W 076°32'0 0.0
2016-May-25 08:34N 39°15' W 076°32'1 0.8
2016-May-25 07:33N 39°14' W 076°33'2 2.5
2016-May-25 06:33N 39°16' W 076°34'0 0.1
2016-May-25 05:33N 39°16' W 076°34'0 0.4
2016-May-25 04:34N 39°16' W 076°35'0 0.0
2016-May-25 03:34N 39°16' W 076°35'0 0.0
2016-May-25 02:34N 39°16' W 076°35'0 0.0
2016-May-25 01:33N 39°16' W 076°35'0 0.0
2016-May-25 00:33N 39°16' W 076°35'0 0.0
2016-May-24 23:34N 39°16' W 076°35'0 0.0
2016-May-24 22:33N 39°16' W 076°35'0 0.0
2016-May-24 21:24N 39°16' W 076°35'0 0.0
2016-May-24 20:17N 39°16' W 076°35'0 0.0
2016-May-24 19:28N 39°16' W 076°35'0 0.0
2016-May-24 18:33N 39°16' W 076°35'0 0.0
2016-May-24 17:07N 39°16' W 076°35'0 0.0
2016-May-24 16:14N 39°16' W 076°35'2 3.4
2016-May-24 15:33N 39°15' W 076°32'2 2.0
2016-May-24 14:33N 39°13' W 076°32'2 2.4
2016-May-24 13:33N 39°13' W 076°35'1 1.5
2016-May-24 12:34N 39°13' W 076°33'2 1.9
2016-May-24 11:34N 39°15' W 076°34'0 0.1
2016-May-24 10:33N 39°15' W 076°34'1 1.3
2016-May-24 09:33N 39°16' W 076°35'0 0.0
2016-May-24 08:33N 39°16' W 076°35'0 0.0
2016-May-24 07:33N 39°16' W 076°35'0 0.0
2016-May-24 06:33N 39°16' W 076°35'0 0.0
2016-May-24 05:33N 39°16' W 076°35'0 0.0
2016-May-24 04:30N 39°16' W 076°35'0 0.0
2016-May-24 03:33N 39°16' W 076°35'0 0.3
2016-May-24 02:33N 39°16' W 076°35'4 3.7
2016-May-24 01:33N 39°13' W 076°32'1 1.4
2016-May-24 00:32N 39°14' W 076°32'2 1.8
2016-May-23 23:31N 39°15' W 076°34'0 0.0
2016-May-23 22:31N 39°15' W 076°34'2 1.8
2016-May-23 21:33N 39°16' W 076°35'0 0.0
2016-May-23 20:31N 39°16' W 076°35'0 0.0
2016-May-23 19:33N 39°16' W 076°35'0 0.0
2016-May-23 18:30N 39°16' W 076°35'0 0.4
2016-May-23 17:34N 39°16' W 076°34'2 2.1
2016-May-23 16:33N 39°14' W 076°33'2 2.3
2016-May-23 15:30N 39°16' W 076°35'0 0.0
2016-May-23 14:31N 39°16' W 076°35'0 0.0
2016-May-23 13:20N 39°16' W 076°35'0 0.0
2016-May-23 12:34N 39°16' W 076°35'0 0.0
2016-May-23 11:33N 39°16' W 076°35'0 0.0
2016-May-23 10:33N 39°16' W 076°35'0 0.2
2016-May-23 09:33N 39°16' W 076°35'0 0.2
2016-May-23 08:33N 39°16' W 076°35'2 2.4
2016-May-23 07:33N 39°15' W 076°32'0 0.0
2016-May-23 06:34N 39°15' W 076°32'0 0.0
2016-May-23 05:33N 39°15' W 076°32'1 1.0
2016-May-23 04:34N 39°14' W 076°33'3 2.3
2016-May-23 03:15N 39°16' W 076°35'0 0.0
2016-May-23 02:31N 39°16' W 076°35'0 0.0
2016-May-23 01:32N 39°16' W 076°35'0 0.0
2016-May-23 00:30N 39°16' W 076°35'0 0.0
2016-May-22 23:30N 39°16' W 076°35'0 0.0
2016-May-22 22:27N 39°16' W 076°35'0 0.0
2016-May-22 21:20N 39°16' W 076°35'0 0.0
2016-May-22 20:11N 39°16' W 076°35'0 0.0
2016-May-22 19:33N 39°16' W 076°35'0 0.0
2016-May-22 18:33N 39°16' W 076°35'0 0.0
2016-May-22 17:33N 39°16' W 076°35'0 0.0
2016-May-22 16:33N 39°16' W 076°35'0 0.0
2016-May-22 15:33N 39°16' W 076°35'0 0.0
2016-May-22 14:30N 39°16' W 076°35'0 0.0
2016-May-22 13:30N 39°16' W 076°35'0 0.0
2016-May-22 12:19N 39°16' W 076°35'0 0.0
2016-May-22 11:25N 39°16' W 076°35'0 0.0
2016-May-22 09:30N 39°16' W 076°35'0 0.0
2016-May-22 08:25N 39°16' W 076°35'0 0.0
2016-May-22 07:30N 39°16' W 076°35'0 0.0
2016-May-22 06:25N 39°16' W 076°35'0 0.0
2016-May-22 05:21N 39°16' W 076°35'  

Dump ship's entire track history